Terminal Aerodrome Forecast
Issued by NWS

Current Version | Previous Version | Graphics & Text | Print | Product List | Glossary On
Versions: 1 2 3 4 5 6 7 8 9 10 11 12 13 14 15 16 17 18 19 20
000
FTUS41 KPBZ 161000 AAA
TAFHLG
TAF AMD
KHLG 161053Z 1611/1706 29006KT P6SM OVC007
      TEMPO 1611/1614 4SM -DZ BR BKN012
     FM161400 33005KT P6SM BKN050
     FM162200 32007KT P6SM SKC=

USA.gov is the U.S. government's official web portal to all federal, state and local government web resources and services.